Hidden Valley, Valles Caldera, New Mexico Weather observations

Data are for 10 minute period ending at time listed.
 Day   Time   Solar   Ave.   Ave.  Ave.  Vector  Max.   Baro.   Total    
  of    of     Rad.   Air    Rel.  Wind   Wind   Wind  Press.  Precip.   
Year   Day            Temp.  Hum.  Speed  Dir.   Gust                    
2015   (MST)  Kw/m2    F      %     mph   deg.    mph    mb.     in.     
-------------------------------------------------------------------------
  59    1:30   0.00   21.1    97    2.1   168     4.0   736.2    0.00 
  59    1:40   0.00   21.1    97    1.8   161     2.6   736.2    0.00 
  59    1:50   0.00   21.1    97    2.2   180     3.3   736.3    0.00 
  59    2:00   0.00   21.2    97    2.3   192     3.8   736.3    0.00 
  59    2:10   0.00   21.0    96    1.5   179     2.3   736.2    0.00 
  59    2:20   0.00   20.8    96    1.4   172     2.6   736.2    0.00 
  59    2:30   0.00   20.7    96    1.0   158     1.5   736.0    0.00 
  59    2:40   0.00   20.7    96    1.2   184     2.0   735.9    0.00 
  59    2:50   0.00   20.7    96    1.0   220     1.7   735.9    0.00 
  59    3:00   0.00   20.7    96    0.3   226     1.6   735.8    0.00 
  59    3:10   0.00   20.7    96    0.3   230     1.2   735.8    0.00 
  59    3:20   0.00   20.7    96    1.6   206     3.0   735.8    0.00 
  59    3:30   0.00   20.8    97    2.1   207     2.9   735.8    0.00 
  59    3:40   0.00   20.8    96    2.1   202     2.9   735.8    0.00 
  59    3:50   0.00   20.7    96    2.2   206     2.9   735.9    0.00 
  59    4:00   0.00   20.6    96    2.4   198     3.8   736.0    0.00 
  59    4:10   0.00   20.5    96    2.0   207     2.9   736.0    0.00 
  59    4:20   0.00   20.4    96    3.1   200     5.8   736.0    0.00 
  59    4:30   0.00   20.3    96    2.2   211     3.6   736.0    0.00 
  59    4:40   0.00   20.2    96    2.1   189     3.0   736.0    0.00 
  59    4:50   0.00   20.3    96    1.7   203     2.3   736.1    0.00 
  59    5:00   0.00   20.3    96    1.4   207     1.9   736.3    0.00 
  59    5:10   0.00   20.3    96    2.1   212     3.3   736.6    0.00 
  59    5:20   0.00   20.1    96    2.7   214     4.5   736.7    0.00 
  59    5:30   0.00   19.8    96    2.4   217     4.0   736.7    0.00 
  59    5:40   0.00   19.7    96    2.1   200     3.5   736.7    0.00 
  59    5:50   0.00   19.6    96    0.9   163     1.6   736.7    0.00 
  59    6:00   0.00   19.5    96    1.1   131     1.6   736.8    0.00 
  59    6:10   0.00   19.4    96    1.0   133     1.4   736.8    0.00 
  59    6:20   0.00   19.3    96    0.8   150     1.6   736.8    0.00 
  59    6:30   0.00   19.3    96    0.2   143     0.8   736.7    0.00 
  59    6:40   0.00   19.3    96    0.3   255     0.8   736.8    0.00 
  59    6:50   0.00   19.3    96    0.5   235     0.8   736.8    0.00 
  59    7:00   0.00   19.4    96    1.0   202     1.3   737.1    0.00 
  59    7:10   0.00   19.4    96    0.4   158     1.0   737.0    0.00 
  59    7:20   0.01   19.5    96    0.7   126     1.1   736.9    0.00 
  59    7:30   0.01   19.5    96    0.3   234     1.7   737.0    0.00 
  59    7:40   0.02   19.9    96    0.1   302     0.5   737.0    0.00 
  59    7:50   0.02   20.5    96    0.2   272     0.7   737.1    0.00 
  59    8:00   0.02   20.9    96    0.0     0     0.0   737.2    0.00 
  59    8:10   0.03   21.1    96    0.1    62     0.5   737.3    0.00 
  59    8:20   0.02   20.9    95    0.8   115     1.0   737.4    0.00 
  59    8:30   0.02   20.5    95    0.5    97     0.8   737.5    0.00 
  59    8:40   0.02   20.5    96    0.7   131     1.1   737.6    0.00 
  59    8:50   0.04   21.1    97    0.6   215     1.2   737.8    0.00 
  59    9:00   0.05   22.1    97    0.6   185     1.5   737.7    0.00 
  59    9:10   0.04   22.6    96    1.0   200     1.7   737.8    0.00 
  59    9:20   0.04   22.2    96    1.8   206     3.0   737.8    0.00 
  59    9:30   0.04   22.2    96    1.7   204     3.1   737.9    0.00 
  59    9:40   0.05   22.4    97    0.9   205     1.9   738.0    0.00 
  59    9:50   0.05   22.9    97    1.1   217     3.5   738.0    0.00 
  59   10:00   0.06   22.7    95    2.7   187     4.1   738.1    0.00 
  59   10:10   0.06   22.5    96    2.0   174     3.2   738.1    0.00 
  59   10:20   0.06   22.2    96    2.2   181     3.4   738.1    0.00 
  59   10:30   0.06   22.4    97    1.7   187     3.4   738.1    0.00 
  59   10:40   0.07   23.1    97    0.9   178     2.4   738.1    0.00 
  59   10:50   0.07   23.9    97    1.4   203     2.4   738.2    0.00 
  59   11:00   0.09   23.9    96    2.6   177     4.3   738.1    0.00 
  59   11:10   0.09   23.9    96    2.9   176     4.7   738.2    0.00 
  59   11:20   0.08   24.1    97    2.5   188     4.3   738.3    0.00 
  59   11:30   0.09   24.3    97    2.9   189     5.2   738.3    0.00 
  59   11:40   0.08   23.8    97    2.9   169     4.7   738.2    0.00 
  59   11:50   0.10   24.3    97    2.5   194     4.4   738.3    0.00 
  59   12:00   0.08   24.3    97    2.6   174     4.0   738.2    0.00 
  59   12:10   0.09   24.6    98    2.7   187     4.7   738.1    0.00 
  59   12:20   0.09   24.5    97    3.5   203     6.1   738.1    0.00 
  59   12:30   0.08   23.9    97    2.9   212     4.3   738.0    0.00 
  59   12:40   0.08   23.9    98    2.4   215     4.3   738.0    0.00 
  59   12:50   0.09   24.4    98    1.9   186     3.5   738.0    0.00 
  59   13:00   0.09   24.7    97    2.6   191     4.1   738.0    0.00 
  59   13:10   0.10   25.1    98    2.0   184     3.9   737.8    0.00 
  59   13:20   0.09   25.1    97    2.1   170     3.3   737.8    0.00 
  59   13:30   0.08   25.3    98    1.7   169     2.7   737.8    0.00 
  59   13:40   0.07   25.4    98    1.2   162     2.4   737.7    0.00 
  59   13:50   0.07   26.0    98    1.4   186     2.2   737.8    0.00 
  59   14:00   0.08   26.3    98    1.7   200     2.7   737.8    0.00 
  59   14:10   0.09   26.0    98    2.1   193     3.5   737.9    0.00 
  59   14:20   0.09   26.3    98    2.3   166     3.3   737.8    0.00 
  59   14:30   0.10   26.1    98    1.9   138     3.5   737.7    0.00 
  59   14:40   0.08   26.6    99    1.4   150     2.5   737.8    0.00 
  59   14:50   0.06   27.3    99    0.8   343     1.6   737.7    0.00 
  59   15:00   0.08   27.6    99    1.1   112     2.9   737.8    0.00 
  59   15:10   0.06   28.0    99    1.8   176     3.3   737.9    0.00 
  59   15:20   0.05   27.7    99    1.9   173     3.9   737.9    0.00 
  59   15:30   0.05   27.6    99    2.7   186     5.1   738.0    0.00 
  59   15:40   0.05   27.1    98    2.7   193     5.2   738.1    0.00 
  59   15:50   0.06   26.8    99    2.0   162     4.1   738.1    0.00 
  59   16:00   0.05   26.8    99    1.7   154     2.7   738.2    0.00 
  59   16:10   0.05   26.9    99    1.9   157     3.3   738.2    0.00 
  59   16:20   0.04   27.0    99    2.2   171     4.5   738.3    0.00 
  59   16:30   0.04   27.0    99    2.0   166     3.6   738.4    0.00 
  59   16:40   0.03   26.9    99    3.0   185     5.3   738.7    0.00 
  59   16:50   0.03   26.8    99    1.7   220     4.3   738.7    0.00 
  59   17:00   0.01   26.6    99    1.8   148     3.4   738.8    0.00 
  59   17:10   0.01   26.5    99    2.2   154     3.9   738.9    0.00 
  59   17:20   0.01   26.4    99    1.7   155     2.9   739.0    0.00 
  59   17:30   0.01   26.7    99    1.6   165     2.2   739.2    0.00 
  59   17:40   0.01   26.8    99    1.2   150     2.6   739.3    0.00 
  59   17:50   0.00   26.7    99    1.7   129     2.8   739.4    0.00 
  59   18:00   0.00   26.8    99    1.3   119     2.2   739.4    0.00 
  59   18:10   0.00   27.0   100    0.7   127     1.4   739.5    0.00 
  59   18:20   0.00   27.1   100    0.7   155     1.5   739.6    0.00 
  59   18:30   0.00   27.2   100    0.5   116     1.4   739.7    0.00 
  59   18:40   0.00   27.1    99    0.7   309     1.6   739.7    0.00 
  59   18:50   0.00   27.1   100    0.5   262     1.2   739.8    0.00 
  59   19:00   0.00   27.3   100    1.3   169     2.2   739.9    0.00 
  59   19:10   0.00   27.8   100    1.3   133     2.4   740.0    0.00 
  59   19:20   0.00   28.1   100    1.3   119     2.3   740.1    0.00 
  59   19:30   0.00   28.6   100    1.3   127     3.0   740.1    0.00 
  59   19:40   0.00   29.0   100    2.2   152     3.6   740.2    0.00 
  59   19:50   0.00   29.3   100    1.7   138     2.7   740.3    0.00 
  59   20:00   0.00   29.5   100    2.2   141     3.7   740.4    0.00 
  59   20:10   0.00   29.6   100    1.8   128     3.7   740.5    0.00 
  59   20:20   0.00   29.8   100    1.2   145     2.6   740.5    0.00 
  59   20:30   0.00   30.0   100    1.6   145     3.0   740.5    0.00 
  59   20:40   0.00   30.1   100    1.9   137     3.0   740.6    0.00 
  59   20:50   0.00   30.2   100    2.5   171     4.5   740.7    0.00 
  59   21:00   0.00   30.3   100    2.4   171     4.1   740.9    0.00 
  59   21:10   0.00   30.3   100    2.4   177     5.4   741.0    0.00 
  59   21:20   0.00   30.4   100    2.7   169     4.5   740.9    0.00 
  59   21:30   0.00   30.4   100    3.6   174     5.6   741.0    0.00 
  59   21:40   0.00   30.4   100    3.6   165     6.4   741.1    0.00 
  59   21:50   0.00   30.6   100    3.6   173     5.9   741.1    0.00 
  59   22:00   0.00   30.7   100    2.9   179     5.8   741.2    0.00 
  59   22:10   0.00   30.8   100    3.1   180     5.6   741.4    0.00 
  59   22:20   0.00   30.9   100    2.3   174     4.8   741.5    0.00 
  59   22:30   0.00   30.9   100    2.5   181     4.2   741.5    0.00 
  59   22:40   0.00   31.0   100    2.8   176     5.0   741.5    0.00 
  59   22:50   0.00   31.1   100    3.0   170     5.2   741.6    0.00 
  59   23:00   0.00   31.1   100    2.4   178     4.9   741.6    0.00 
  59   23:10   0.00   31.2   100    3.2   176     4.7   741.6    0.00 
  59   23:20   0.00   31.3   100    3.4   179     6.1   741.8    0.00 
  59   23:30   0.00   31.3   100    3.3   188     5.9   741.8    0.00 
  59   23:40   0.00   31.4   100    2.5   182     4.2   741.9    0.00 
  59   23:50   0.00   31.4   100    2.6   164     4.3   741.8    0.00 
  60    0:00   0.00   31.5   100    2.9   186     5.6   741.9    0.00 
  60    0:10   0.00   31.5   100    2.7   185     5.1   741.9    0.00 
  60    0:20   0.00   31.6   100    3.0   198     5.8   741.9    0.00 
  60    0:30   0.00   31.6   100    2.9   214     5.3   742.1    0.00 
  60    0:40   0.00   31.6   100    3.0   196     5.6   742.0    0.00 
  60    0:50   0.00   31.5   100    2.2   199     4.6   742.1    0.00 
  60    1:00   0.00   31.4   100    3.2   181     5.9   742.1    0.00 
  60    1:10   0.00   31.3   100    2.8   204     5.1   742.3    0.00 
  60    1:20   0.00   31.2   100    3.5   180     6.1   742.3    0.00 

Return to Hidden Valley, Valles Caldera graphs page.


Western Regional Climate Center,wrcc@dri.edu